createdAt,value
2018-03-08T00:00:33.538Z,0
2018-03-08T00:01:14.042Z,0
2018-03-08T00:01:54.561Z,0
2018-03-08T00:02:35.118Z,0
2018-03-08T00:03:15.596Z,0
2018-03-08T00:03:56.215Z,0
2018-03-08T00:04:36.575Z,0
2018-03-08T00:05:17.113Z,0
2018-03-08T00:05:57.637Z,0
2018-03-08T00:06:38.150Z,0
2018-03-08T00:07:18.657Z,0
2018-03-08T00:07:59.170Z,0
2018-03-08T00:08:39.644Z,0
2018-03-08T00:09:20.193Z,0
2018-03-08T00:10:00.653Z,0
2018-03-08T00:10:41.176Z,0
2018-03-08T00:11:21.674Z,0
2018-03-08T00:12:02.139Z,0
2018-03-08T00:12:42.651Z,0
2018-03-08T00:13:23.139Z,0
2018-03-08T00:14:03.644Z,0
2018-03-08T00:14:44.195Z,0
2018-03-08T00:15:24.600Z,0
2018-03-08T00:16:05.105Z,0
2018-03-08T00:16:45.581Z,0
2018-03-08T00:17:26.060Z,0
2018-03-08T00:18:06.584Z,0
2018-03-08T00:18:47.059Z,0
2018-03-08T00:19:27.574Z,0
2018-03-08T00:20:08.086Z,0
2018-03-08T00:20:48.580Z,0
2018-03-08T00:21:29.105Z,0
2018-03-08T00:22:09.640Z,0
2018-03-08T00:22:50.137Z,0
2018-03-08T00:23:30.607Z,0
2018-03-08T00:24:11.099Z,0
2018-03-08T00:24:51.599Z,0
2018-03-08T00:25:32.084Z,0
2018-03-08T00:26:12.532Z,0
2018-03-08T00:26:53.045Z,0
2018-03-08T00:27:33.652Z,0
2018-03-08T00:28:14.150Z,0
2018-03-08T00:28:54.605Z,0
2018-03-08T00:29:35.117Z,0
2018-03-08T00:30:15.625Z,0
2018-03-08T00:30:56.102Z,0
2018-03-08T00:31:36.711Z,0
2018-03-08T00:32:17.171Z,0
2018-03-08T00:32:57.693Z,0
2018-03-08T00:33:38.222Z,0
2018-03-08T00:34:18.687Z,0
2018-03-08T00:34:59.189Z,0
2018-03-08T00:35:39.767Z,0
2018-03-08T00:36:20.230Z,0
2018-03-08T00:37:00.761Z,0
2018-03-08T00:37:41.281Z,0
2018-03-08T00:38:21.762Z,0
2018-03-08T00:39:02.259Z,0
2018-03-08T00:39:42.807Z,0
2018-03-08T00:40:23.295Z,0
2018-03-08T00:41:03.772Z,0
2018-03-08T00:41:44.252Z,0
2018-03-08T00:42:24.760Z,0
2018-03-08T00:43:05.304Z,0
2018-03-08T00:43:45.825Z,0
2018-03-08T00:44:26.357Z,0
2018-03-08T00:45:06.867Z,0
2018-03-08T00:45:47.396Z,0
2018-03-08T00:46:27.909Z,0
2018-03-08T00:47:08.437Z,0
2018-03-08T00:47:48.965Z,0
2018-03-08T00:48:29.473Z,0
2018-03-08T00:49:09.980Z,0
2018-03-08T00:49:50.507Z,0
2018-03-08T00:50:31.013Z,0
2018-03-08T00:51:11.522Z,0
2018-03-08T00:51:52.040Z,0
2018-03-08T00:52:32.557Z,0
2018-03-08T00:53:13.077Z,0
2018-03-08T00:53:53.603Z,0
2018-03-08T00:54:34.098Z,0
2018-03-08T00:55:14.608Z,0
2018-03-08T00:55:55.136Z,0
2018-03-08T00:56:35.657Z,0
2018-03-08T00:57:16.174Z,0
2018-03-08T00:57:56.700Z,0
2018-03-08T00:58:37.225Z,0
2018-03-08T00:59:17.753Z,0
2018-03-08T00:59:58.242Z,0
2018-03-08T01:00:38.737Z,0
2018-03-08T01:01:19.267Z,0
2018-03-08T01:01:59.761Z,0
2018-03-08T01:02:40.250Z,0
2018-03-08T01:03:20.754Z,0
2018-03-08T01:04:01.261Z,0
2018-03-08T01:04:41.792Z,0
2018-03-08T01:05:22.225Z,0
2018-03-08T01:06:02.686Z,0
2018-03-08T01:06:43.194Z,0
2018-03-08T01:07:23.659Z,0
2018-03-08T01:08:04.199Z,0
2018-03-08T01:08:44.649Z,0
2018-03-08T01:09:25.170Z,0
2018-03-08T01:10:05.611Z,0
2018-03-08T01:10:46.128Z,0
2018-03-08T01:11:26.600Z,0
2018-03-08T01:12:07.073Z,0
2018-03-08T01:12:47.564Z,0
2018-03-08T01:13:28.056Z,0
2018-03-08T01:14:08.563Z,0
2018-03-08T01:14:50.045Z,0
2018-03-08T01:15:30.534Z,0
2018-03-08T01:16:10.996Z,0
2018-03-08T01:16:51.512Z,0
2018-03-08T01:17:32.018Z,0
2018-03-08T01:18:12.482Z,0
2018-03-08T01:18:52.975Z,0
2018-03-08T01:19:33.518Z,0
2018-03-08T01:20:14.021Z,0
2018-03-08T01:20:54.545Z,0
2018-03-08T01:21:35.080Z,0
2018-03-08T01:22:15.565Z,0
2018-03-08T01:22:56.039Z,0
2018-03-08T01:23:36.518Z,0
2018-03-08T01:24:17.038Z,0
2018-03-08T01:24:57.551Z,0
2018-03-08T01:25:38.009Z,0
2018-03-08T01:26:18.489Z,0
2018-03-08T01:26:58.990Z,0
2018-03-08T01:27:39.503Z,0
2018-03-08T01:28:19.988Z,0
2018-03-08T01:29:00.508Z,0
2018-03-08T01:29:40.998Z,0
2018-03-08T01:30:21.573Z,0
2018-03-08T01:31:02.027Z,0
2018-03-08T01:31:42.525Z,0
2018-03-08T01:32:22.995Z,0
2018-03-08T01:33:03.495Z,0
2018-03-08T01:33:44.010Z,0
2018-03-08T01:34:24.503Z,0
2018-03-08T01:35:04.968Z,0
2018-03-08T01:35:45.426Z,0
2018-03-08T01:36:25.910Z,0
2018-03-08T01:37:06.408Z,0
2018-03-08T01:37:46.955Z,0
2018-03-08T01:38:27.459Z,0
2018-03-08T01:39:07.911Z,0
2018-03-08T01:39:48.435Z,0
2018-03-08T01:40:28.923Z,0
2018-03-08T01:41:09.397Z,0
2018-03-08T01:41:49.902Z,0
2018-03-08T01:42:30.356Z,0
2018-03-08T01:43:10.876Z,0
2018-03-08T01:43:51.372Z,0
2018-03-08T01:44:31.877Z,0
2018-03-08T01:45:12.341Z,0
2018-03-08T01:45:52.981Z,0
2018-03-08T01:46:33.481Z,0
2018-03-08T01:47:13.974Z,0
2018-03-08T01:47:54.450Z,0
2018-03-08T01:48:34.986Z,0
2018-03-08T01:49:15.514Z,0
2018-03-08T01:49:55.982Z,0
2018-03-08T01:50:36.464Z,0
2018-03-08T01:51:16.936Z,0
2018-03-08T01:51:57.440Z,0
2018-03-08T01:52:37.917Z,0
2018-03-08T01:53:18.452Z,0
2018-03-08T01:53:58.950Z,0
2018-03-08T01:54:39.438Z,0
2018-03-08T01:55:19.934Z,0
2018-03-08T01:56:00.399Z,0
2018-03-08T01:56:40.900Z,0
2018-03-08T01:57:21.364Z,0
2018-03-08T01:58:01.894Z,0
2018-03-08T01:58:42.447Z,0
2018-03-08T01:59:22.883Z,0
2018-03-08T02:00:03.398Z,0
2018-03-08T02:00:43.919Z,0
2018-03-08T02:01:24.436Z,0
2018-03-08T02:02:04.921Z,0
2018-03-08T02:02:45.390Z,0
2018-03-08T02:03:25.907Z,0
2018-03-08T02:04:06.424Z,0
2018-03-08T02:04:46.934Z,0
2018-03-08T02:05:27.448Z,0
2018-03-08T02:06:07.964Z,0
2018-03-08T02:06:48.485Z,0
2018-03-08T02:07:29.019Z,0
2018-03-08T02:08:09.534Z,0
2018-03-08T02:08:50.053Z,0
2018-03-08T02:09:30.571Z,0
2018-03-08T02:10:11.086Z,0
2018-03-08T02:10:51.592Z,0
2018-03-08T02:11:32.104Z,0
2018-03-08T02:12:12.621Z,0
2018-03-08T02:12:53.123Z,0
2018-03-08T02:13:33.645Z,0
2018-03-08T02:14:14.163Z,0
2018-03-08T02:14:54.672Z,0
2018-03-08T02:15:35.203Z,0
2018-03-08T02:16:15.717Z,0
2018-03-08T02:16:56.201Z,0
2018-03-08T02:17:36.660Z,0
2018-03-08T02:18:17.167Z,0
2018-03-08T02:18:57.676Z,0
2018-03-08T02:19:38.214Z,0
2018-03-08T02:20:18.744Z,0
2018-03-08T02:20:59.250Z,0
2018-03-08T02:21:39.761Z,0
2018-03-08T02:22:20.267Z,0
2018-03-08T02:23:00.783Z,0
2018-03-08T02:23:41.298Z,0
2018-03-08T02:24:21.833Z,0
2018-03-08T02:25:02.340Z,0
2018-03-08T02:25:42.835Z,0
2018-03-08T02:26:23.353Z,0
2018-03-08T02:27:03.871Z,0
2018-03-08T02:27:44.404Z,0
2018-03-08T02:28:24.897Z,0
2018-03-08T02:29:05.410Z,0
2018-03-08T02:29:45.927Z,0
2018-03-08T02:30:26.440Z,0
2018-03-08T02:31:06.955Z,0
2018-03-08T02:31:47.471Z,0
2018-03-08T02:32:27.994Z,0
2018-03-08T02:33:08.498Z,0
2018-03-08T02:33:49.028Z,0
2018-03-08T02:34:29.543Z,0
2018-03-08T02:35:10.065Z,0
2018-03-08T02:35:50.534Z,0
2018-03-08T02:36:31.041Z,0
2018-03-08T02:37:11.556Z,0
2018-03-08T02:37:52.080Z,0
2018-03-08T02:38:32.629Z,0
2018-03-08T02:39:13.094Z,0
2018-03-08T02:39:53.631Z,0
2018-03-08T02:40:34.166Z,0
2018-03-08T02:41:14.677Z,0
2018-03-08T02:41:55.209Z,0
2018-03-08T02:42:35.732Z,0
2018-03-08T02:43:16.253Z,0
2018-03-08T02:43:56.755Z,0
2018-03-08T02:44:37.262Z,0
2018-03-08T02:45:17.773Z,0
2018-03-08T02:45:58.288Z,0
2018-03-08T02:46:38.800Z,0
2018-03-08T02:47:19.308Z,0
2018-03-08T02:47:59.829Z,0
2018-03-08T02:48:40.340Z,0
2018-03-08T02:49:20.858Z,0
2018-03-08T02:50:01.381Z,0
2018-03-08T02:50:41.891Z,0
2018-03-08T02:51:22.414Z,0
2018-03-08T02:52:02.922Z,0
2018-03-08T02:52:43.421Z,0
2018-03-08T02:53:23.925Z,0
2018-03-08T02:54:04.446Z,0
2018-03-08T02:54:44.928Z,0
2018-03-08T02:55:25.416Z,0
2018-03-08T02:56:05.933Z,0
2018-03-08T02:56:46.450Z,0
2018-03-08T02:57:26.994Z,0
2018-03-08T02:58:07.464Z,0
2018-03-08T02:58:47.972Z,0
2018-03-08T02:59:28.444Z,0
2018-03-08T03:00:08.950Z,0
2018-03-08T03:00:49.424Z,0
2018-03-08T03:01:29.896Z,0
2018-03-08T03:02:10.400Z,0
2018-03-08T03:02:50.881Z,0
2018-03-08T03:03:31.349Z,0
2018-03-08T03:04:11.890Z,0
2018-03-08T03:04:52.377Z,0
2018-03-08T03:05:32.896Z,0
2018-03-08T03:06:13.378Z,0
2018-03-08T03:06:53.877Z,0
2018-03-08T03:07:34.360Z,0
2018-03-08T03:08:14.874Z,0
2018-03-08T03:08:55.431Z,0
2018-03-08T03:09:35.930Z,0
2018-03-08T03:10:16.457Z,0
2018-03-08T03:10:56.934Z,0
2018-03-08T03:11:37.427Z,0
2018-03-08T03:12:17.935Z,0
2018-03-08T03:12:58.453Z,0
2018-03-08T03:13:38.976Z,0
2018-03-08T03:14:19.490Z,0
2018-03-08T03:15:00.018Z,0
2018-03-08T03:15:40.520Z,0
2018-03-08T03:16:21.046Z,0
2018-03-08T03:17:01.532Z,0
2018-03-08T03:17:42.019Z,0
2018-03-08T03:18:22.515Z,0
2018-03-08T03:19:03.020Z,0
2018-03-08T03:19:43.511Z,0
2018-03-08T03:20:24.050Z,0
2018-03-08T03:21:04.505Z,0
2018-03-08T03:21:44.978Z,0
2018-03-08T03:22:25.454Z,0
2018-03-08T03:23:05.948Z,0
2018-03-08T03:23:46.419Z,0
2018-03-08T03:24:26.890Z,0
2018-03-08T03:25:07.375Z,0
2018-03-08T03:25:47.890Z,0
2018-03-08T03:26:28.355Z,0
2018-03-08T03:27:08.857Z,0
2018-03-08T03:27:49.373Z,0
2018-03-08T03:28:29.902Z,0
2018-03-08T03:29:10.430Z,0
2018-03-08T03:29:50.955Z,0
2018-03-08T03:30:31.485Z,0
2018-03-08T03:31:12.003Z,0
2018-03-08T03:31:52.514Z,0
2018-03-08T03:32:33.015Z,0
2018-03-08T03:33:13.548Z,0
2018-03-08T03:33:54.057Z,0
2018-03-08T03:34:34.572Z,0
2018-03-08T03:35:15.078Z,0
2018-03-08T03:35:55.593Z,0
2018-03-08T03:36:36.114Z,0
2018-03-08T03:37:16.621Z,0
2018-03-08T03:37:57.137Z,0
2018-03-08T03:38:37.661Z,0
2018-03-08T03:39:18.124Z,0
2018-03-08T03:39:58.635Z,0
2018-03-08T03:40:39.138Z,0
2018-03-08T03:41:19.647Z,0
2018-03-08T03:42:00.167Z,0
2018-03-08T03:42:40.698Z,0
2018-03-08T03:43:21.200Z,0
2018-03-08T03:44:01.718Z,0
2018-03-08T03:44:42.227Z,0
2018-03-08T03:45:22.748Z,0
2018-03-08T03:46:03.254Z,0
2018-03-08T03:46:43.772Z,0
2018-03-08T03:47:24.283Z,0
2018-03-08T03:48:04.795Z,0
2018-03-08T03:48:45.324Z,0
2018-03-08T03:49:25.830Z,0
2018-03-08T03:50:06.341Z,0
2018-03-08T03:50:46.870Z,0
2018-03-08T03:51:27.408Z,0
2018-03-08T03:52:07.918Z,0
2018-03-08T03:52:48.430Z,0
2018-03-08T03:53:28.951Z,0
2018-03-08T03:54:09.472Z,0
2018-03-08T03:54:49.988Z,0
2018-03-08T03:55:30.540Z,0
2018-03-08T03:56:11.073Z,0
2018-03-08T03:56:51.561Z,0
2018-03-08T03:57:32.085Z,0
2018-03-08T03:58:12.604Z,0
2018-03-08T03:58:53.121Z,0
2018-03-08T03:59:33.631Z,0
2018-03-08T04:00:14.154Z,0
2018-03-08T04:00:54.671Z,0
2018-03-08T04:01:35.172Z,0
2018-03-08T04:02:15.688Z,0
2018-03-08T04:02:56.185Z,0
2018-03-08T04:03:36.698Z,0
2018-03-08T04:04:17.231Z,0
2018-03-08T04:04:57.757Z,0
2018-03-08T04:05:38.274Z,0
2018-03-08T04:06:18.804Z,0
2018-03-08T04:06:59.321Z,0
2018-03-08T04:07:39.832Z,0
2018-03-08T04:08:20.350Z,0
2018-03-08T04:09:00.866Z,0
2018-03-08T04:09:41.373Z,0
2018-03-08T04:10:21.886Z,0
2018-03-08T04:11:02.415Z,0
2018-03-08T04:11:42.931Z,0
2018-03-08T04:12:23.441Z,0
2018-03-08T04:13:03.953Z,0
2018-03-08T04:13:44.472Z,0
2018-03-08T04:14:24.993Z,0
2018-03-08T04:15:05.503Z,0
2018-03-08T04:15:46.008Z,0
2018-03-08T04:16:26.536Z,0
2018-03-08T04:17:07.050Z,0
2018-03-08T04:17:47.568Z,0
2018-03-08T04:18:28.101Z,0
2018-03-08T04:19:08.611Z,0
2018-03-08T04:19:49.122Z,0
2018-03-08T04:20:29.629Z,0
2018-03-08T04:21:10.136Z,0
2018-03-08T04:21:50.679Z,0
2018-03-08T04:22:31.183Z,0
2018-03-08T04:23:11.684Z,0
2018-03-08T04:23:52.192Z,0
2018-03-08T04:24:32.708Z,0
2018-03-08T04:25:13.226Z,0
2018-03-08T04:25:53.740Z,0
2018-03-08T04:26:34.252Z,0
2018-03-08T04:27:14.784Z,0
2018-03-08T04:27:55.297Z,0
2018-03-08T04:28:35.850Z,0
2018-03-08T04:29:16.323Z,0
2018-03-08T04:29:56.785Z,0
2018-03-08T04:30:37.273Z,0
2018-03-08T04:31:17.792Z,0
2018-03-08T04:31:58.305Z,0
2018-03-08T04:32:38.824Z,0
2018-03-08T04:33:19.339Z,0
2018-03-08T04:33:59.846Z,0
2018-03-08T04:34:40.374Z,0
2018-03-08T04:35:20.891Z,0
2018-03-08T04:36:01.411Z,0
2018-03-08T04:36:41.924Z,0
2018-03-08T04:37:22.437Z,0
2018-03-08T04:38:02.921Z,0
2018-03-08T04:38:43.438Z,0
2018-03-08T04:39:23.881Z,0
2018-03-08T04:40:04.376Z,0
2018-03-08T04:40:44.922Z,0
2018-03-08T04:41:25.419Z,0
2018-03-08T04:42:05.989Z,0
2018-03-08T04:42:46.396Z,0
2018-03-08T04:43:26.870Z,0
2018-03-08T04:44:07.356Z,0
2018-03-08T04:44:47.865Z,0
2018-03-08T04:45:28.402Z,0
2018-03-08T04:46:08.910Z,0
2018-03-08T04:46:49.462Z,0
2018-03-08T04:47:29.968Z,0
2018-03-08T04:48:10.431Z,0
2018-03-08T04:48:50.948Z,0
2018-03-08T04:49:31.406Z,0
2018-03-08T04:50:11.889Z,0
2018-03-08T04:50:52.361Z,0
2018-03-08T04:51:32.841Z,0
2018-03-08T04:52:13.355Z,0
2018-03-08T04:52:53.877Z,0
2018-03-08T04:53:34.417Z,0
2018-03-08T04:54:14.884Z,0
2018-03-08T04:54:55.343Z,0
2018-03-08T04:55:35.860Z,0
2018-03-08T04:56:16.363Z,0
2018-03-08T04:56:56.834Z,0
2018-03-08T04:57:37.286Z,0
2018-03-08T04:58:17.824Z,0
2018-03-08T04:58:58.287Z,0
2018-03-08T04:59:38.799Z,0
2018-03-08T05:00:19.284Z,0
2018-03-08T05:00:59.803Z,0
2018-03-08T05:01:40.270Z,0
2018-03-08T05:02:20.752Z,0
2018-03-08T05:03:01.273Z,0
2018-03-08T05:03:41.768Z,0
2018-03-08T05:04:22.399Z,0
2018-03-08T05:05:02.889Z,0
2018-03-08T05:05:43.381Z,0
2018-03-08T05:06:23.860Z,0
2018-03-08T05:07:04.335Z,0
2018-03-08T05:07:44.853Z,0
2018-03-08T05:08:25.382Z,0
2018-03-08T05:09:05.828Z,0
2018-03-08T05:09:46.304Z,0
2018-03-08T05:10:26.796Z,0
2018-03-08T05:11:07.292Z,0
2018-03-08T05:11:47.810Z,0
2018-03-08T05:12:28.340Z,0
2018-03-08T05:13:08.862Z,0
2018-03-08T05:13:49.310Z,0
2018-03-08T05:14:29.858Z,0
2018-03-08T05:15:10.324Z,0
2018-03-08T05:15:50.844Z,0
2018-03-08T05:16:31.283Z,0
2018-03-08T05:17:11.743Z,0
2018-03-08T05:17:52.254Z,0
2018-03-08T05:18:32.758Z,0
2018-03-08T05:19:13.280Z,0
2018-03-08T05:19:53.808Z,0
2018-03-08T05:20:34.240Z,0
2018-03-08T05:21:14.741Z,0
2018-03-08T05:21:55.285Z,0
2018-03-08T05:22:35.793Z,0
2018-03-08T05:23:16.300Z,0
2018-03-08T05:23:56.814Z,0
2018-03-08T05:24:37.330Z,0
2018-03-08T05:25:17.839Z,0
2018-03-08T05:25:58.358Z,0
2018-03-08T05:26:38.881Z,0
2018-03-08T05:27:19.396Z,0
2018-03-08T05:27:59.919Z,0
2018-03-08T05:28:40.436Z,0
2018-03-08T05:29:20.947Z,0
2018-03-08T05:30:01.478Z,0
2018-03-08T05:30:41.986Z,0
2018-03-08T05:31:22.501Z,0
2018-03-08T05:32:03.108Z,0
2018-03-08T05:32:43.673Z,0
2018-03-08T05:33:24.163Z,0
2018-03-08T05:34:04.636Z,0
2018-03-08T05:34:45.105Z,0
2018-03-08T05:35:25.592Z,0
2018-03-08T05:36:06.108Z,0
2018-03-08T05:36:46.649Z,0
2018-03-08T05:37:27.158Z,0
2018-03-08T05:38:07.693Z,0
2018-03-08T05:38:48.338Z,0
2018-03-08T05:39:28.810Z,0
2018-03-08T05:40:09.315Z,0
2018-03-08T05:40:49.872Z,0
2018-03-08T05:41:30.312Z,0
2018-03-08T05:42:10.819Z,0
2018-03-08T05:42:51.280Z,0
2018-03-08T05:43:31.764Z,0
2018-03-08T05:44:12.250Z,0
2018-03-08T05:44:52.793Z,0
2018-03-08T05:45:33.229Z,0
2018-03-08T05:46:13.706Z,0
2018-03-08T05:46:54.234Z,0
2018-03-08T05:47:34.683Z,0
2018-03-08T05:48:15.185Z,0
2018-03-08T05:48:55.673Z,0
2018-03-08T05:49:36.143Z,0
2018-03-08T05:50:16.622Z,0
2018-03-08T05:50:57.132Z,0
2018-03-08T05:51:37.646Z,0
2018-03-08T05:52:18.170Z,0
2018-03-08T05:52:58.680Z,0
2018-03-08T05:53:39.216Z,0
2018-03-08T05:54:19.725Z,0
2018-03-08T05:55:00.234Z,0
2018-03-08T05:55:40.750Z,0
2018-03-08T05:56:21.274Z,0
2018-03-08T05:57:01.784Z,0
2018-03-08T05:57:42.309Z,0
2018-03-08T05:58:22.816Z,0
2018-03-08T05:59:03.327Z,0
2018-03-08T05:59:43.844Z,0
2018-03-08T06:00:24.354Z,0
2018-03-08T06:01:04.870Z,0
2018-03-08T06:01:45.384Z,0
2018-03-08T06:02:25.897Z,0
2018-03-08T06:03:06.413Z,0
2018-03-08T06:03:46.927Z,0
2018-03-08T06:04:27.431Z,0
2018-03-08T06:05:07.945Z,0
2018-03-08T06:05:48.462Z,0
2018-03-08T06:06:28.989Z,0
2018-03-08T06:07:09.492Z,0
2018-03-08T06:07:50.008Z,5
2018-03-08T06:08:30.564Z,5
2018-03-08T06:09:11.028Z,5
2018-03-08T06:09:51.545Z,5
2018-03-08T06:10:32.073Z,5
2018-03-08T06:11:12.600Z,5
2018-03-08T06:11:53.136Z,5
2018-03-08T06:12:33.658Z,5
2018-03-08T06:13:14.168Z,5
2018-03-08T06:13:54.723Z,5
2018-03-08T06:14:35.225Z,5
2018-03-08T06:15:15.745Z,5
2018-03-08T06:15:56.242Z,5
2018-03-08T06:16:36.750Z,5
2018-03-08T06:17:17.245Z,5
2018-03-08T06:17:57.755Z,10
2018-03-08T06:18:38.274Z,10
2018-03-08T06:19:18.774Z,15
2018-03-08T06:19:59.278Z,15
2018-03-08T06:20:39.794Z,15
2018-03-08T06:21:20.295Z,15
2018-03-08T06:22:00.797Z,15
2018-03-08T06:22:41.307Z,15
2018-03-08T06:23:21.817Z,20
2018-03-08T06:24:02.330Z,20
2018-03-08T06:24:42.815Z,20
2018-03-08T06:25:23.323Z,20
2018-03-08T06:26:03.844Z,20
2018-03-08T06:26:44.346Z,25
2018-03-08T06:27:24.888Z,25
2018-03-08T06:28:05.398Z,25
2018-03-08T06:28:45.921Z,25
2018-03-08T06:29:26.447Z,25
2018-03-08T06:30:06.987Z,25
2018-03-08T06:30:47.510Z,25
2018-03-08T06:31:28.022Z,25
2018-03-08T06:32:08.528Z,25
2018-03-08T06:32:49.014Z,25
2018-03-08T06:33:29.529Z,25
2018-03-08T06:34:10.051Z,25
2018-03-08T06:34:50.562Z,25
2018-03-08T06:35:31.080Z,25
2018-03-08T06:36:11.556Z,25
2018-03-08T06:36:52.078Z,30
2018-03-08T06:37:32.578Z,30
2018-03-08T06:38:13.060Z,30
2018-03-08T06:38:53.556Z,30
2018-03-08T06:39:34.077Z,35
2018-03-08T06:40:14.578Z,35
2018-03-08T06:40:55.114Z,35
2018-03-08T06:41:35.622Z,35
2018-03-08T06:42:16.157Z,35
2018-03-08T06:42:56.635Z,35
2018-03-08T06:43:37.127Z,40
2018-03-08T06:44:17.616Z,35
2018-03-08T06:44:58.156Z,45
2018-03-08T06:45:38.662Z,45
2018-03-08T06:46:19.184Z,65
2018-03-08T06:46:59.634Z,60
2018-03-08T06:47:40.144Z,60
2018-03-08T06:48:20.645Z,65
2018-03-08T06:49:01.205Z,65
2018-03-08T06:49:41.720Z,65
2018-03-08T06:50:22.250Z,65
2018-03-08T06:51:02.795Z,65
2018-03-08T06:51:43.306Z,65
2018-03-08T06:52:23.853Z,65
2018-03-08T06:53:04.336Z,65
2018-03-08T06:53:44.863Z,70
2018-03-08T06:54:25.472Z,70
2018-03-08T06:55:05.983Z,75
2018-03-08T06:55:46.474Z,95
2018-03-08T06:56:26.982Z,100
2018-03-08T06:57:07.540Z,105
2018-03-08T06:57:48.025Z,110
2018-03-08T06:58:28.533Z,115
2018-03-08T06:59:09.046Z,120
2018-03-08T06:59:49.550Z,120
2018-03-08T07:00:30.077Z,115
2018-03-08T07:01:10.564Z,105
2018-03-08T07:01:51.082Z,75
2018-03-08T07:02:31.603Z,60
2018-03-08T07:03:12.133Z,60
2018-03-08T07:03:52.629Z,65
2018-03-08T07:04:33.211Z,70
2018-03-08T07:06:48.255Z,85
2018-03-08T07:07:28.800Z,90
2018-03-08T07:08:09.308Z,95
2018-03-08T07:08:49.827Z,95
2018-03-08T07:09:30.370Z,100
2018-03-08T07:10:10.888Z,105
2018-03-08T07:10:51.393Z,105
2018-03-08T07:11:31.948Z,100
2018-03-08T07:12:12.408Z,100
2018-03-08T07:12:52.913Z,100
2018-03-08T07:13:33.433Z,100
2018-03-08T07:14:13.942Z,100
2018-03-08T07:14:54.451Z,95
2018-03-08T07:15:35.138Z,95
2018-03-08T07:16:15.655Z,95
2018-03-08T07:16:56.174Z,100
2018-03-08T07:17:36.702Z,100
2018-03-08T07:18:17.211Z,100
2018-03-08T07:18:57.747Z,95
2018-03-08T07:19:38.252Z,90
2018-03-08T07:20:18.876Z,85
2018-03-08T07:20:59.430Z,85
2018-03-08T07:21:39.959Z,85
2018-03-08T07:22:20.458Z,80
2018-03-08T07:23:00.975Z,85
2018-03-08T07:23:41.497Z,85
2018-03-08T07:24:22.020Z,80
2018-03-08T07:25:02.550Z,80
2018-03-08T07:25:43.075Z,80
2018-03-08T07:26:23.591Z,85
2018-03-08T07:27:04.109Z,80
2018-03-08T07:27:44.620Z,80
2018-03-08T07:28:25.145Z,80
2018-03-08T07:29:05.671Z,80
2018-03-08T07:29:46.179Z,85
2018-03-08T07:30:26.688Z,85
2018-03-08T07:31:07.204Z,90
2018-03-08T07:31:48.273Z,90
2018-03-08T07:32:28.245Z,90
2018-03-08T07:33:08.765Z,90
2018-03-08T07:33:49.297Z,95
2018-03-08T07:34:29.802Z,95
2018-03-08T07:35:10.303Z,100
2018-03-08T07:35:50.800Z,105
2018-03-08T07:36:31.317Z,110
2018-03-08T07:37:11.840Z,100
2018-03-08T07:37:52.364Z,95
2018-03-08T07:38:32.893Z,105
2018-03-08T07:39:13.403Z,110
2018-03-08T07:39:53.936Z,110
2018-03-08T07:40:34.454Z,110
2018-03-08T07:41:15.040Z,110
2018-03-08T07:41:55.813Z,95
2018-03-08T07:42:36.336Z,100
2018-03-08T07:43:16.879Z,115
2018-03-08T07:43:57.420Z,110
2018-03-08T07:44:37.951Z,115
2018-03-08T07:45:18.463Z,115
2018-03-08T07:45:58.977Z,115
2018-03-08T07:46:39.486Z,115
2018-03-08T07:47:20.018Z,110
2018-03-08T07:48:00.538Z,105
2018-03-08T07:48:41.049Z,105
2018-03-08T07:49:21.576Z,105
2018-03-08T07:50:02.090Z,110
2018-03-08T07:50:42.591Z,110
2018-03-08T07:51:23.106Z,110
2018-03-08T07:52:03.615Z,105
2018-03-08T07:52:44.131Z,105
2018-03-08T07:53:24.638Z,105
2018-03-08T07:54:05.383Z,105
2018-03-08T07:54:45.888Z,110
2018-03-08T07:55:26.392Z,115
2018-03-08T07:56:06.938Z,120
2018-03-08T07:56:47.522Z,125
2018-03-08T07:57:28.323Z,135
2018-03-08T07:58:08.850Z,135
2018-03-08T07:58:49.477Z,150
2018-03-08T07:59:29.991Z,150
2018-03-08T08:00:10.511Z,155
2018-03-08T08:00:51.005Z,155
2018-03-08T08:01:31.513Z,155
2018-03-08T08:02:12.044Z,150
2018-03-08T08:02:52.583Z,145
2018-03-08T08:03:33.089Z,145
2018-03-08T08:04:13.625Z,140
2018-03-08T08:04:54.201Z,130
2018-03-08T08:05:34.728Z,125
2018-03-08T08:06:15.227Z,120
2018-03-08T08:06:55.754Z,115
2018-03-08T08:07:36.276Z,95
2018-03-08T08:08:16.792Z,100
2018-03-08T08:08:57.311Z,100
2018-03-08T08:09:37.844Z,105
2018-03-08T08:10:18.351Z,100
2018-03-08T08:10:58.862Z,100
2018-03-08T08:11:39.374Z,100
2018-03-08T08:12:19.874Z,110
2018-03-08T08:13:00.381Z,130
2018-03-08T08:13:40.941Z,135
2018-03-08T08:14:21.490Z,155
2018-03-08T08:15:02.003Z,145
2018-03-08T08:15:42.517Z,145
2018-03-08T08:16:23.032Z,155
2018-03-08T08:17:03.602Z,140
2018-03-08T08:17:44.091Z,130
2018-03-08T08:18:24.600Z,125
2018-03-08T08:19:05.085Z,125
2018-03-08T08:19:45.612Z,125
2018-03-08T08:20:26.124Z,120
2018-03-08T08:21:06.642Z,115
2018-03-08T08:21:47.160Z,120
2018-03-08T08:22:27.679Z,115
2018-03-08T08:23:08.210Z,115
2018-03-08T08:23:48.743Z,115
2018-03-08T08:24:29.280Z,120
2018-03-08T08:25:09.780Z,125
2018-03-08T08:25:50.276Z,125
2018-03-08T08:26:30.936Z,125
2018-03-08T08:27:11.420Z,130
2018-03-08T08:27:51.935Z,130
2018-03-08T08:28:32.466Z,125
2018-03-08T08:29:12.958Z,125
2018-03-08T08:29:53.484Z,125
2018-03-08T08:30:34.008Z,130
2018-03-08T08:31:14.512Z,140
2018-03-08T08:33:53.198Z,155
2018-03-08T08:34:33.718Z,150
2018-03-08T08:35:14.222Z,150
2018-03-08T08:35:54.739Z,155
2018-03-08T08:36:35.248Z,155
2018-03-08T08:37:15.761Z,155
2018-03-08T08:37:56.373Z,155
2018-03-08T08:38:36.882Z,160
2018-03-08T08:39:17.412Z,160
2018-03-08T08:39:57.931Z,165
2018-03-08T08:40:38.433Z,165
2018-03-08T08:41:18.945Z,165
2018-03-08T08:41:59.492Z,160
2018-03-08T08:42:39.962Z,150
2018-03-08T08:43:20.587Z,150
2018-03-08T08:44:01.096Z,150
2018-03-08T08:44:41.613Z,155
2018-03-08T08:45:22.137Z,155
2018-03-08T08:46:02.646Z,160
2018-03-08T08:46:43.166Z,165
2018-03-08T08:47:23.693Z,165
2018-03-08T08:48:04.194Z,170
2018-03-08T08:48:44.699Z,180
2018-03-08T08:49:25.262Z,185
2018-03-08T08:50:05.759Z,175
2018-03-08T08:50:46.264Z,165
2018-03-08T08:51:26.782Z,170
2018-03-08T08:52:07.300Z,170
2018-03-08T08:52:47.828Z,175
2018-03-08T08:53:28.368Z,170
2018-03-08T08:54:08.881Z,160
2018-03-08T08:54:49.386Z,155
2018-03-08T08:55:29.899Z,160
2018-03-08T08:56:10.441Z,145
2018-03-08T08:56:50.950Z,135
2018-03-08T08:57:31.452Z,130
2018-03-08T08:58:11.968Z,125
2018-03-08T08:58:52.488Z,125
2018-03-08T08:59:33.015Z,125
2018-03-08T09:00:13.586Z,125
2018-03-08T09:00:54.062Z,120
2018-03-08T09:01:34.574Z,115
2018-03-08T09:02:15.091Z,110
2018-03-08T09:02:55.613Z,105
2018-03-08T09:03:36.126Z,105
2018-03-08T09:04:16.619Z,105
2018-03-08T09:04:57.138Z,100
2018-03-08T09:05:37.677Z,100
2018-03-08T09:06:18.194Z,105
2018-03-08T09:06:58.772Z,100
2018-03-08T09:07:39.290Z,100
2018-03-08T09:08:19.782Z,100
2018-03-08T09:09:00.287Z,100
2018-03-08T09:09:40.841Z,100
2018-03-08T09:10:21.370Z,100
2018-03-08T09:11:01.925Z,100
2018-03-08T09:11:42.454Z,100
2018-03-08T09:12:22.969Z,100
2018-03-08T09:13:03.510Z,100
2018-03-08T09:13:44.029Z,100
2018-03-08T09:14:24.597Z,100
2018-03-08T09:15:05.117Z,100
2018-03-08T09:15:45.643Z,100
2018-03-08T09:16:26.173Z,100
2018-03-08T09:17:06.686Z,100
2018-03-08T09:17:47.217Z,100
2018-03-08T09:18:27.734Z,100
2018-03-08T09:19:08.240Z,100
2018-03-08T09:19:49.503Z,100
2018-03-08T09:20:29.345Z,100
2018-03-08T09:21:09.846Z,100
2018-03-08T09:21:50.355Z,100
2018-03-08T09:22:30.877Z,100
2018-03-08T09:23:11.402Z,100
2018-03-08T09:23:51.919Z,100
2018-03-08T09:24:32.454Z,100
2018-03-08T09:25:12.951Z,100
2018-03-08T09:25:53.470Z,100
2018-03-08T09:26:33.986Z,100
2018-03-08T09:27:14.488Z,100
2018-03-08T09:27:54.997Z,100
2018-03-08T09:28:35.505Z,100
2018-03-08T09:29:16.026Z,100
2018-03-08T09:29:56.542Z,100
2018-03-08T09:30:37.053Z,100
2018-03-08T09:31:17.560Z,100
2018-03-08T09:31:58.063Z,100
2018-03-08T09:32:38.590Z,100
2018-03-08T09:33:19.105Z,100
2018-03-08T09:33:59.630Z,100
2018-03-08T09:34:40.133Z,105
2018-03-08T09:35:20.669Z,105
2018-03-08T09:36:01.190Z,100
2018-03-08T09:36:41.705Z,100
2018-03-08T09:37:22.219Z,100
2018-03-08T09:38:02.740Z,100
2018-03-08T09:38:43.232Z,95
2018-03-08T09:39:23.784Z,105
2018-03-08T09:40:04.282Z,100
2018-03-08T09:40:44.808Z,105
2018-03-08T09:41:25.318Z,105
2018-03-08T09:42:05.851Z,105
2018-03-08T09:42:46.356Z,105
2018-03-08T09:43:26.868Z,105
2018-03-08T09:44:07.410Z,105
2018-03-08T09:44:47.915Z,120
2018-03-08T09:45:28.449Z,120
2018-03-08T09:46:08.972Z,115
2018-03-08T09:46:49.466Z,115
2018-03-08T09:47:29.982Z,110
2018-03-08T09:48:10.494Z,105
2018-03-08T09:48:51.027Z,115
2018-03-08T09:49:31.545Z,120